sensor_id;sensor_type;location;lat;lon;timestamp;pressure;altitude;pressure_sealevel;temperature;humidity
64711;BME280;51139;45.626;6.850;2022-08-05T00:02:06;82561.59;;;20.51;49.38
64711;BME280;51139;45.626;6.850;2022-08-05T00:04:32;82556.72;;;20.47;48.77
64711;BME280;51139;45.626;6.850;2022-08-05T00:06:57;82549.13;;;20.71;48.18
64711;BME280;51139;45.626;6.850;2022-08-05T00:09:23;82547.22;;;20.60;48.10
64711;BME280;51139;45.626;6.850;2022-08-05T00:11:48;82550.22;;;20.94;47.17
64711;BME280;51139;45.626;6.850;2022-08-05T00:14:14;82542.63;;;21.05;47.11
64711;BME280;51139;45.626;6.850;2022-08-05T00:16:39;82542.81;;;21.09;47.32
64711;BME280;51139;45.626;6.850;2022-08-05T00:19:04;82544.84;;;21.38;46.29
64711;BME280;51139;45.626;6.850;2022-08-05T00:21:30;82547.09;;;21.14;46.99
64711;BME280;51139;45.626;6.850;2022-08-05T00:23:55;82541.88;;;21.32;46.43
64711;BME280;51139;45.626;6.850;2022-08-05T00:26:21;82541.53;;;20.96;47.21
64711;BME280;51139;45.626;6.850;2022-08-05T00:28:46;82547.50;;;21.08;46.79
64711;BME280;51139;45.626;6.850;2022-08-05T00:31:12;82544.78;;;21.22;46.41
64711;BME280;51139;45.626;6.850;2022-08-05T00:33:37;82549.31;;;20.90;47.76
64711;BME280;51139;45.626;6.850;2022-08-05T00:36:03;82545.75;;;20.71;48.30
64711;BME280;51139;45.626;6.850;2022-08-05T00:38:29;82540.66;;;20.91;47.75
64711;BME280;51139;45.626;6.850;2022-08-05T00:40:55;82538.63;;;21.06;47.33
64711;BME280;51139;45.626;6.850;2022-08-05T00:43:22;82536.16;;;20.96;47.55
64711;BME280;51139;45.626;6.850;2022-08-05T00:45:48;82533.91;;;21.20;46.71
64711;BME280;51139;45.626;6.850;2022-08-05T00:48:16;82532.88;;;20.97;47.58
64711;BME280;51139;45.626;6.850;2022-08-05T00:50:43;82531.97;;;20.93;47.23
64711;BME280;51139;45.626;6.850;2022-08-05T00:53:09;82530.91;;;20.84;48.02
64711;BME280;51139;45.626;6.850;2022-08-05T00:55:35;82533.16;;;21.04;47.39
64711;BME280;51139;45.626;6.850;2022-08-05T00:58:00;82535.75;;;21.02;47.62
64711;BME280;51139;45.626;6.850;2022-08-05T01:00:27;82520.84;;;21.14;47.09
64711;BME280;51139;45.626;6.850;2022-08-05T01:02:54;82527.28;;;20.93;47.60
64711;BME280;51139;45.626;6.850;2022-08-05T01:05:19;82526.84;;;20.41;48.64
64711;BME280;51139;45.626;6.850;2022-08-05T01:07:45;82520.25;;;19.76;50.41
64711;BME280;51139;45.626;6.850;2022-08-05T01:10:12;82516.66;;;20.11;49.83
64711;BME280;51139;45.626;6.850;2022-08-05T01:12:44;82514.75;;;20.00;50.15
64711;BME280;51139;45.626;6.850;2022-08-05T01:15:12;82518.84;;;20.01;50.43
64711;BME280;51139;45.626;6.850;2022-08-05T01:17:48;82510.28;;;19.91;50.49
64711;BME280;51139;45.626;6.850;2022-08-05T01:23:42;82508.03;;;19.87;51.07
64711;BME280;51139;45.626;6.850;2022-08-05T01:26:39;82510.69;;;19.59;51.39
64711;BME280;51139;45.626;6.850;2022-08-05T01:29:28;82514.34;;;19.52;51.90
64711;BME280;51139;45.626;6.850;2022-08-05T01:31:59;82513.66;;;19.91;50.61
64711;BME280;51139;45.626;6.850;2022-08-05T01:34:37;82522.56;;;19.42;51.92
64711;BME280;51139;45.626;6.850;2022-08-05T01:37:25;82507.00;;;19.27;52.14
64711;BME280;51139;45.626;6.850;2022-08-05T01:39:55;82511.44;;;19.08;52.26
64711;BME280;51139;45.626;6.850;2022-08-05T01:42:22;82517.00;;;19.12;52.51
64711;BME280;51139;45.626;6.850;2022-08-05T01:44:49;82512.06;;;19.20;52.33
64711;BME280;51139;45.626;6.850;2022-08-05T01:47:18;82507.34;;;19.07;52.77
64711;BME280;51139;45.626;6.850;2022-08-05T01:49:44;82510.13;;;19.09;51.97
64711;BME280;51139;45.626;6.850;2022-08-05T01:52:12;82510.66;;;19.19;52.46
64711;BME280;51139;45.626;6.850;2022-08-05T01:54:47;82504.81;;;19.23;51.81
64711;BME280;51139;45.626;6.850;2022-08-05T01:57:18;82502.94;;;19.25;51.56
64711;BME280;51139;45.626;6.850;2022-08-05T01:59:45;82498.22;;;19.12;52.11
64711;BME280;51139;45.626;6.850;2022-08-05T02:02:14;82499.31;;;19.21;51.62
64711;BME280;51139;45.626;6.850;2022-08-05T02:04:41;82494.06;;;19.23;51.60
64711;BME280;51139;45.626;6.850;2022-08-05T02:07:09;82496.06;;;19.22;51.43
64711;BME280;51139;45.626;6.850;2022-08-05T02:09:34;82486.41;;;19.17;51.89
64711;BME280;51139;45.626;6.850;2022-08-05T02:17:35;82484.16;;;19.39;51.53
64711;BME280;51139;45.626;6.850;2022-08-05T02:20:06;82485.28;;;19.48;50.76
64711;BME280;51139;45.626;6.850;2022-08-05T02:22:40;82490.81;;;19.78;50.27
64711;BME280;51139;45.626;6.850;2022-08-05T02:25:12;82485.88;;;20.01;50.08
64711;BME280;51139;45.626;6.850;2022-08-05T02:27:38;82483.09;;;19.98;49.67
64711;BME280;51139;45.626;6.850;2022-08-05T02:30:05;82487.59;;;20.36;48.84
64711;BME280;51139;45.626;6.850;2022-08-05T02:32:32;82482.88;;;20.50;48.23
64711;BME280;51139;45.626;6.850;2022-08-05T02:35:04;82489.81;;;19.86;50.40
64711;BME280;51139;45.626;6.850;2022-08-05T02:37:31;82486.00;;;19.23;51.75
64711;BME280;51139;45.626;6.850;2022-08-05T02:39:58;82482.75;;;19.38;51.36
64711;BME280;51139;45.626;6.850;2022-08-05T02:42:25;82478.97;;;19.30;51.58
64711;BME280;51139;45.626;6.850;2022-08-05T02:44:51;82484.88;;;19.40;51.72
64711;BME280;51139;45.626;6.850;2022-08-05T02:47:17;82497.09;;;19.03;52.75
64711;BME280;51139;45.626;6.850;2022-08-05T02:49:45;82490.78;;;18.99;52.85
64711;BME280;51139;45.626;6.850;2022-08-05T02:52:16;82483.09;;;18.93;52.95
64711;BME280;51139;45.626;6.850;2022-08-05T02:54:43;82486.38;;;18.91;53.10
64711;BME280;51139;45.626;6.850;2022-08-05T02:57:12;82492.50;;;19.32;52.04
64711;BME280;51139;45.626;6.850;2022-08-05T02:59:41;82493.50;;;19.38;52.08
64711;BME280;51139;45.626;6.850;2022-08-05T03:02:08;82484.03;;;19.63;51.34
64711;BME280;51139;45.626;6.850;2022-08-05T03:04:35;82483.94;;;19.21;52.56
64711;BME280;51139;45.626;6.850;2022-08-05T03:07:01;82483.78;;;19.05;52.86
64711;BME280;51139;45.626;6.850;2022-08-05T03:09:27;82477.63;;;18.91;53.12
64711;BME280;51139;45.626;6.850;2022-08-05T03:11:53;82477.13;;;18.94;52.98
64711;BME280;51139;45.626;6.850;2022-08-05T03:14:18;82472.28;;;19.17;52.72
64711;BME280;51139;45.626;6.850;2022-08-05T03:16:44;82478.88;;;19.28;52.15
64711;BME280;51139;45.626;6.850;2022-08-05T03:19:09;82471.59;;;19.16;52.70
64711;BME280;51139;45.626;6.850;2022-08-05T03:21:34;82467.34;;;18.99;52.49
64711;BME280;51139;45.626;6.850;2022-08-05T03:24:00;82474.94;;;19.03;52.99
64711;BME280;51139;45.626;6.850;2022-08-05T03:26:27;82474.53;;;19.48;51.24
64711;BME280;51139;45.626;6.850;2022-08-05T03:28:52;82474.09;;;19.80;50.79
64711;BME280;51139;45.626;6.850;2022-08-05T03:31:18;82471.50;;;19.82;50.59
64711;BME280;51139;45.626;6.850;2022-08-05T03:33:44;82478.16;;;19.67;51.32
64711;BME280;51139;45.626;6.850;2022-08-05T03:36:10;82468.38;;;19.46;51.47
64711;BME280;51139;45.626;6.850;2022-08-05T03:38:39;82469.28;;;19.50;51.49
64711;BME280;51139;45.626;6.850;2022-08-05T03:41:06;82469.25;;;19.90;50.40
64711;BME280;51139;45.626;6.850;2022-08-05T03:43:31;82470.16;;;19.95;49.90
64711;BME280;51139;45.626;6.850;2022-08-05T03:45:57;82464.97;;;19.99;49.53
64711;BME280;51139;45.626;6.850;2022-08-05T03:48:22;82456.53;;;19.37;51.10
64711;BME280;51139;45.626;6.850;2022-08-05T03:50:54;82461.25;;;19.78;50.34
64711;BME280;51139;45.626;6.850;2022-08-05T03:53:40;82456.00;;;19.40;50.97
64711;BME280;51139;45.626;6.850;2022-08-05T03:56:25;82452.47;;;19.50;51.30
64711;BME280;51139;45.626;6.850;2022-08-05T03:58:54;82454.66;;;19.53;51.16
64711;BME280;51139;45.626;6.850;2022-08-05T04:01:22;82457.75;;;19.62;50.96
64711;BME280;51139;45.626;6.850;2022-08-05T04:03:50;82453.22;;;19.24;52.44
64711;BME280;51139;45.626;6.850;2022-08-05T04:06:17;82454.88;;;18.92;53.37
64711;BME280;51139;45.626;6.850;2022-08-05T04:08:43;82453.59;;;18.93;53.45
64711;BME280;51139;45.626;6.850;2022-08-05T04:11:09;82452.13;;;19.30;52.09
64711;BME280;51139;45.626;6.850;2022-08-05T04:13:40;82460.09;;;19.02;52.46
64711;BME280;51139;45.626;6.850;2022-08-05T04:16:08;82457.38;;;18.76;53.53
64711;BME280;51139;45.626;6.850;2022-08-05T04:18:34;82458.19;;;18.78;53.27
64711;BME280;51139;45.626;6.850;2022-08-05T04:21:00;82456.75;;;18.89;53.09
64711;BME280;51139;45.626;6.850;2022-08-05T04:23:27;82463.00;;;19.06;52.97
64711;BME280;51139;45.626;6.850;2022-08-05T04:25:53;82463.72;;;18.94;53.15
64711;BME280;51139;45.626;6.850;2022-08-05T04:28:19;82465.06;;;18.81;53.98
64711;BME280;51139;45.626;6.850;2022-08-05T04:30:46;82476.22;;;18.90;53.41
64711;BME280;51139;45.626;6.850;2022-08-05T04:33:12;82487.28;;;19.08;52.99
64711;BME280;51139;45.626;6.850;2022-08-05T04:35:38;82475.22;;;19.35;52.01
64711;BME280;51139;45.626;6.850;2022-08-05T04:38:03;82480.16;;;19.27;51.97
64711;BME280;51139;45.626;6.850;2022-08-05T04:40:35;82488.13;;;19.24;52.07
64711;BME280;51139;45.626;6.850;2022-08-05T04:43:00;82486.78;;;19.12;52.69
64711;BME280;51139;45.626;6.850;2022-08-05T04:45:26;82482.31;;;19.16;52.43
64711;BME280;51139;45.626;6.850;2022-08-05T04:47:51;82492.31;;;19.02;53.02
64711;BME280;51139;45.626;6.850;2022-08-05T04:50:17;82496.66;;;18.83;52.95
64711;BME280;51139;45.626;6.850;2022-08-05T04:52:44;82491.59;;;18.63;53.65
64711;BME280;51139;45.626;6.850;2022-08-05T04:55:09;82499.63;;;19.13;52.58
64711;BME280;51139;45.626;6.850;2022-08-05T04:57:35;82500.06;;;19.35;51.04
64711;BME280;51139;45.626;6.850;2022-08-05T05:00:01;82496.28;;;18.63;53.43
64711;BME280;51139;45.626;6.850;2022-08-05T05:02:26;82504.34;;;18.89;52.99
64711;BME280;51139;45.626;6.850;2022-08-05T05:04:51;82498.59;;;18.94;52.44
64711;BME280;51139;45.626;6.850;2022-08-05T05:07:17;82498.72;;;18.96;52.67
64711;BME280;51139;45.626;6.850;2022-08-05T05:09:43;82491.69;;;19.29;51.86
64711;BME280;51139;45.626;6.850;2022-08-05T05:12:09;82491.28;;;19.61;51.13
64711;BME280;51139;45.626;6.850;2022-08-05T05:14:34;82497.88;;;19.72;50.27
64711;BME280;51139;45.626;6.850;2022-08-05T05:16:59;82494.88;;;19.79;50.16
64711;BME280;51139;45.626;6.850;2022-08-05T05:19:25;82501.75;;;19.82;51.30
64711;BME280;51139;45.626;6.850;2022-08-05T05:21:50;82500.34;;;19.67;50.43
64711;BME280;51139;45.626;6.850;2022-08-05T05:24:16;82500.50;;;19.97;50.10
64711;BME280;51139;45.626;6.850;2022-08-05T05:26:41;82496.13;;;19.90;50.04
64711;BME280;51139;45.626;6.850;2022-08-05T05:29:07;82497.75;;;19.56;50.39
64711;BME280;51139;45.626;6.850;2022-08-05T05:31:33;82500.72;;;19.62;50.49
64711;BME280;51139;45.626;6.850;2022-08-05T05:33:59;82500.03;;;20.15;48.73
64711;BME280;51139;45.626;6.850;2022-08-05T05:36:24;82503.31;;;20.41;47.82
64711;BME280;51139;45.626;6.850;2022-08-05T05:38:50;82510.97;;;20.33;47.90
64711;BME280;51139;45.626;6.850;2022-08-05T05:41:15;82504.91;;;20.33;47.60
64711;BME280;51139;45.626;6.850;2022-08-05T05:43:40;82503.72;;;19.54;49.67
64711;BME280;51139;45.626;6.850;2022-08-05T05:46:06;82502.13;;;18.97;51.94
64711;BME280;51139;45.626;6.850;2022-08-05T05:48:32;82508.47;;;19.16;52.09
64711;BME280;51139;45.626;6.850;2022-08-05T05:50:58;82504.66;;;19.07;53.68
64711;BME280;51139;45.626;6.850;2022-08-05T05:53:23;82497.63;;;18.76;54.92
64711;BME280;51139;45.626;6.850;2022-08-05T05:55:49;82500.84;;;18.60;54.67
64711;BME280;51139;45.626;6.850;2022-08-05T05:58:14;82500.84;;;18.98;54.35
64711;BME280;51139;45.626;6.850;2022-08-05T06:00:40;82499.88;;;19.05;53.69
64711;BME280;51139;45.626;6.850;2022-08-05T06:03:05;82500.34;;;19.28;52.95
64711;BME280;51139;45.626;6.850;2022-08-05T06:05:30;82493.13;;;18.92;54.20
64711;BME280;51139;45.626;6.850;2022-08-05T06:07:56;82494.28;;;18.63;54.56
64711;BME280;51139;45.626;6.850;2022-08-05T06:10:21;82499.31;;;18.57;55.25
64711;BME280;51139;45.626;6.850;2022-08-05T06:12:47;82500.16;;;18.48;55.80
64711;BME280;51139;45.626;6.850;2022-08-05T06:15:12;82496.53;;;18.55;57.58
64711;BME280;51139;45.626;6.850;2022-08-05T06:17:37;82498.91;;;18.37;55.58
64711;BME280;51139;45.626;6.850;2022-08-05T06:20:04;82505.78;;;18.40;55.81
64711;BME280;51139;45.626;6.850;2022-08-05T06:22:32;82496.44;;;19.17;54.38
64711;BME280;51139;45.626;6.850;2022-08-05T06:24:58;82505.78;;;19.56;52.78
64711;BME280;51139;45.626;6.850;2022-08-05T06:27:24;82501.84;;;19.71;53.42
64711;BME280;51139;45.626;6.850;2022-08-05T06:29:49;82502.84;;;19.37;52.99
64711;BME280;51139;45.626;6.850;2022-08-05T06:32:15;82506.06;;;19.08;54.71
64711;BME280;51139;45.626;6.850;2022-08-05T06:34:40;82507.59;;;19.51;53.51
64711;BME280;51139;45.626;6.850;2022-08-05T06:37:06;82507.59;;;19.91;52.00
64711;BME280;51139;45.626;6.850;2022-08-05T06:39:32;82505.59;;;20.19;50.40
64711;BME280;51139;45.626;6.850;2022-08-05T06:41:58;82511.69;;;20.34;51.91
64711;BME280;51139;45.626;6.850;2022-08-05T06:44:27;82501.97;;;20.70;49.81
64711;BME280;51139;45.626;6.850;2022-08-05T06:46:54;82504.13;;;20.30;49.95
64711;BME280;51139;45.626;6.850;2022-08-05T06:49:21;82507.59;;;20.47;50.42
64711;BME280;51139;45.626;6.850;2022-08-05T06:51:46;82510.13;;;20.73;50.21
64711;BME280;51139;45.626;6.850;2022-08-05T06:54:12;82506.97;;;20.76;48.67
64711;BME280;51139;45.626;6.850;2022-08-05T06:56:37;82503.72;;;21.38;48.00
64711;BME280;51139;45.626;6.850;2022-08-05T06:59:04;82511.41;;;21.90;47.22
64711;BME280;51139;45.626;6.850;2022-08-05T07:01:30;82502.69;;;21.91;46.08
64711;BME280;51139;45.626;6.850;2022-08-05T07:03:55;82510.09;;;22.23;45.34
64711;BME280;51139;45.626;6.850;2022-08-05T07:06:20;82511.41;;;21.90;45.43
64711;BME280;51139;45.626;6.850;2022-08-05T07:08:47;82514.06;;;21.74;47.84
64711;BME280;51139;45.626;6.850;2022-08-05T07:11:14;82517.63;;;20.74;51.38
64711;BME280;51139;45.626;6.850;2022-08-05T07:13:39;82519.75;;;20.62;52.74
64711;BME280;51139;45.626;6.850;2022-08-05T07:16:23;82518.03;;;20.82;53.80
64711;BME280;51139;45.626;6.850;2022-08-05T07:19:07;82520.69;;;21.56;49.45
64711;BME280;51139;45.626;6.850;2022-08-05T07:21:33;82519.72;;;21.20;51.14
64711;BME280;51139;45.626;6.850;2022-08-05T07:23:58;82514.72;;;22.04;47.85
64711;BME280;51139;45.626;6.850;2022-08-05T07:26:23;82518.44;;;22.29;46.81
64711;BME280;51139;45.626;6.850;2022-08-05T07:28:49;82514.25;;;22.74;43.91
64711;BME280;51139;45.626;6.850;2022-08-05T07:31:15;82509.78;;;22.81;42.83
64711;BME280;51139;45.626;6.850;2022-08-05T07:33:41;82513.84;;;22.98;43.91
64711;BME280;51139;45.626;6.850;2022-08-05T07:36:06;82518.88;;;22.55;46.55
64711;BME280;51139;45.626;6.850;2022-08-05T07:38:33;82510.84;;;23.08;45.12
64711;BME280;51139;45.626;6.850;2022-08-05T07:40:58;82517.00;;;22.92;43.96
64711;BME280;51139;45.626;6.850;2022-08-05T07:43:24;82512.41;;;23.47;43.12
64711;BME280;51139;45.626;6.850;2022-08-05T07:45:49;82518.63;;;23.52;42.12
64711;BME280;51139;45.626;6.850;2022-08-05T07:48:15;82510.28;;;23.27;42.98
64711;BME280;51139;45.626;6.850;2022-08-05T07:50:40;82512.97;;;23.27;44.03
64711;BME280;51139;45.626;6.850;2022-08-05T07:53:05;82523.06;;;23.43;44.50
64711;BME280;51139;45.626;6.850;2022-08-05T07:55:31;82507.75;;;23.86;39.75
64711;BME280;51139;45.626;6.850;2022-08-05T07:57:57;82513.00;;;24.00;41.61
64711;BME280;51139;45.626;6.850;2022-08-05T08:00:22;82518.56;;;24.04;40.93
64711;BME280;51139;45.626;6.850;2022-08-05T08:02:48;82516.53;;;23.86;38.75
64711;BME280;51139;45.626;6.850;2022-08-05T08:05:14;82514.69;;;23.55;41.47
64711;BME280;51139;45.626;6.850;2022-08-05T08:07:40;82527.66;;;23.76;40.84
64711;BME280;51139;45.626;6.850;2022-08-05T08:10:05;82519.34;;;23.18;43.31
64711;BME280;51139;45.626;6.850;2022-08-05T08:12:31;82520.88;;;23.57;40.85
64711;BME280;51139;45.626;6.850;2022-08-05T08:14:56;82517.56;;;23.59;42.27
64711;BME280;51139;45.626;6.850;2022-08-05T08:17:22;82522.81;;;23.91;41.20
64711;BME280;51139;45.626;6.850;2022-08-05T08:19:47;82515.06;;;23.29;40.93
64711;BME280;51139;45.626;6.850;2022-08-05T08:22:13;82520.13;;;23.21;42.15
64711;BME280;51139;45.626;6.850;2022-08-05T08:24:38;82514.94;;;23.43;41.83
64711;BME280;51139;45.626;6.850;2022-08-05T08:27:05;82519.09;;;23.64;42.06
64711;BME280;51139;45.626;6.850;2022-08-05T08:29:30;82512.94;;;23.61;40.54
64711;BME280;51139;45.626;6.850;2022-08-05T08:31:56;82519.81;;;23.65;40.26
64711;BME280;51139;45.626;6.850;2022-08-05T08:34:23;82521.13;;;24.00;41.29
64711;BME280;51139;45.626;6.850;2022-08-05T08:36:49;82518.13;;;23.55;40.61
64711;BME280;51139;45.626;6.850;2022-08-05T08:39:15;82515.00;;;23.81;41.17
64711;BME280;51139;45.626;6.850;2022-08-05T08:41:46;82521.00;;;23.98;41.28
64711;BME280;51139;45.626;6.850;2022-08-05T08:44:15;82515.94;;;23.70;41.07
64711;BME280;51139;45.626;6.850;2022-08-05T08:46:42;82518.66;;;23.88;41.35
64711;BME280;51139;45.626;6.850;2022-08-05T08:49:12;82518.41;;;23.64;40.94
64711;BME280;51139;45.626;6.850;2022-08-05T08:51:39;82519.94;;;24.05;40.87
64711;BME280;51139;45.626;6.850;2022-08-05T08:54:05;82518.78;;;23.92;38.66
64711;BME280;51139;45.626;6.850;2022-08-05T08:56:31;82510.72;;;23.22;40.54
64711;BME280;51139;45.626;6.850;2022-08-05T08:58:57;82514.00;;;23.36;40.92
64711;BME280;51139;45.626;6.850;2022-08-05T09:01:24;82515.88;;;23.68;40.28
64711;BME280;51139;45.626;6.850;2022-08-05T09:03:52;82517.63;;;23.97;40.47
64711;BME280;51139;45.626;6.850;2022-08-05T09:06:18;82524.22;;;23.74;39.84
64711;BME280;51139;45.626;6.850;2022-08-05T09:08:44;82521.25;;;23.50;39.73
64711;BME280;51139;45.626;6.850;2022-08-05T09:11:09;82527.91;;;23.65;40.01
64711;BME280;51139;45.626;6.850;2022-08-05T09:13:37;82523.25;;;24.22;38.46
64711;BME280;51139;45.626;6.850;2022-08-05T09:16:02;82520.75;;;24.28;37.58
64711;BME280;51139;45.626;6.850;2022-08-05T09:18:28;82524.66;;;23.86;39.28
64711;BME280;51139;45.626;6.850;2022-08-05T09:20:54;82514.38;;;24.01;38.58
64711;BME280;51139;45.626;6.850;2022-08-05T09:23:20;82525.94;;;24.22;39.14
64711;BME280;51139;45.626;6.850;2022-08-05T09:25:47;82523.28;;;24.80;36.73
64711;BME280;51139;45.626;6.850;2022-08-05T09:28:16;82523.50;;;24.48;37.53
64711;BME280;51139;45.626;6.850;2022-08-05T09:31:06;82523.03;;;24.15;38.08
64711;BME280;51139;45.626;6.850;2022-08-05T09:33:48;82523.03;;;24.15;37.62
64711;BME280;51139;45.626;6.850;2022-08-05T09:36:15;82521.25;;;24.22;38.17
64711;BME280;51139;45.626;6.850;2022-08-05T09:38:57;82520.69;;;24.26;37.89
64711;BME280;51139;45.626;6.850;2022-08-05T09:41:23;82524.13;;;24.46;36.80
64711;BME280;51139;45.626;6.850;2022-08-05T09:43:48;82518.53;;;24.22;36.55
64711;BME280;51139;45.626;6.850;2022-08-05T09:46:31;82509.44;;;23.95;37.43
64711;BME280;51139;45.626;6.850;2022-08-05T09:48:59;82520.56;;;24.42;37.15
64711;BME280;51139;45.626;6.850;2022-08-05T09:51:38;82512.59;;;24.66;36.02
64711;BME280;51139;45.626;6.850;2022-08-05T09:54:05;82519.34;;;25.05;37.13
64711;BME280;51139;45.626;6.850;2022-08-05T09:56:34;82514.41;;;25.62;34.94
64711;BME280;51139;45.626;6.850;2022-08-05T09:59:02;82513.81;;;25.88;34.29
64711;BME280;51139;45.626;6.850;2022-08-05T10:01:29;82507.72;;;25.88;34.71
64711;BME280;51139;45.626;6.850;2022-08-05T10:04:04;82506.28;;;25.20;34.72
64711;BME280;51139;45.626;6.850;2022-08-05T10:06:30;82513.28;;;25.27;35.03
64711;BME280;51139;45.626;6.850;2022-08-05T10:09:09;82510.16;;;26.02;33.83
64711;BME280;51139;45.626;6.850;2022-08-05T10:11:35;82499.84;;;25.74;33.96
64711;BME280;51139;45.626;6.850;2022-08-05T10:14:19;82495.00;;;26.17;33.19
64711;BME280;51139;45.626;6.850;2022-08-05T10:16:45;82498.91;;;26.12;32.96
64711;BME280;51139;45.626;6.850;2022-08-05T10:19:10;82497.53;;;25.88;34.44
64711;BME280;51139;45.626;6.850;2022-08-05T10:21:38;82509.09;;;25.02;35.54
64711;BME280;51139;45.626;6.850;2022-08-05T10:24:04;82511.47;;;24.33;36.08
64711;BME280;51139;45.626;6.850;2022-08-05T10:26:31;82506.63;;;24.70;35.68
64711;BME280;51139;45.626;6.850;2022-08-05T10:28:56;82504.84;;;24.76;35.46
64711;BME280;51139;45.626;6.850;2022-08-05T10:31:22;82499.09;;;25.71;34.66
64711;BME280;51139;45.626;6.850;2022-08-05T10:33:48;82501.19;;;25.30;33.56
64711;BME280;51139;45.626;6.850;2022-08-05T10:36:13;82497.88;;;25.12;34.40
64711;BME280;51139;45.626;6.850;2022-08-05T10:38:43;82496.22;;;25.89;32.80
64711;BME280;51139;45.626;6.850;2022-08-05T10:41:26;82501.00;;;26.13;32.47
64711;BME280;51139;45.626;6.850;2022-08-05T10:44:11;82495.97;;;25.81;32.50
64711;BME280;51139;45.626;6.850;2022-08-05T10:46:46;82488.19;;;25.27;33.59
64711;BME280;51139;45.626;6.850;2022-08-05T10:49:12;82486.22;;;25.72;32.70
64711;BME280;51139;45.626;6.850;2022-08-05T10:51:58;82481.44;;;25.48;31.70
64711;BME280;51139;45.626;6.850;2022-08-05T10:54:48;82485.81;;;25.37;31.97
64711;BME280;51139;45.626;6.850;2022-08-05T10:57:27;82482.53;;;24.98;33.51
64711;BME280;51139;45.626;6.850;2022-08-05T11:00:13;82476.75;;;25.50;33.91
64711;BME280;51139;45.626;6.850;2022-08-05T11:05:31;82463.84;;;25.96;32.22
64711;BME280;51139;45.626;6.850;2022-08-05T11:08:02;82465.81;;;26.15;33.48
64711;BME280;51139;45.626;6.850;2022-08-05T11:10:29;82480.25;;;25.33;34.30
64711;BME280;51139;45.626;6.850;2022-08-05T11:12:56;82470.19;;;25.35;33.01
64711;BME280;51139;45.626;6.850;2022-08-05T11:15:27;82479.63;;;25.79;32.49
64711;BME280;51139;45.626;6.850;2022-08-05T11:18:28;82470.84;;;25.56;32.70
64711;BME280;51139;45.626;6.850;2022-08-05T11:20:54;82477.06;;;25.39;31.77
64711;BME280;51139;45.626;6.850;2022-08-05T11:28:43;82466.38;;;25.23;32.81
64711;BME280;51139;45.626;6.850;2022-08-05T11:41:04;82491.91;;;23.96;36.15
64711;BME280;51139;45.626;6.850;2022-08-05T11:43:30;82494.75;;;23.82;36.30
64711;BME280;51139;45.626;6.850;2022-08-05T11:45:56;82486.00;;;23.11;36.60
64711;BME280;51139;45.626;6.850;2022-08-05T11:48:22;82483.91;;;23.10;36.73
64711;BME280;51139;45.626;6.850;2022-08-05T11:50:48;82487.78;;;23.23;36.58
64711;BME280;51139;45.626;6.850;2022-08-05T11:53:15;82490.47;;;23.05;37.64
64711;BME280;51139;45.626;6.850;2022-08-05T11:56:01;82487.97;;;22.93;37.65
64711;BME280;51139;45.626;6.850;2022-08-05T11:58:33;82500.53;;;23.20;37.82
64711;BME280;51139;45.626;6.850;2022-08-05T12:03:54;82501.53;;;22.44;39.07
64711;BME280;51139;45.626;6.850;2022-08-05T12:06:21;82506.47;;;22.48;39.39
64711;BME280;51139;45.626;6.850;2022-08-05T12:08:50;82509.34;;;22.20;42.12
64711;BME280;51139;45.626;6.850;2022-08-05T12:11:26;82509.75;;;21.98;45.12
64711;BME280;51139;45.626;6.850;2022-08-05T12:14:00;82521.84;;;21.21;49.43
64711;BME280;51139;45.626;6.850;2022-08-05T12:16:31;82522.53;;;19.54;52.56
64711;BME280;51139;45.626;6.850;2022-08-05T12:18:57;82525.00;;;19.24;60.98
64711;BME280;51139;45.626;6.850;2022-08-05T12:21:47;82517.66;;;19.24;55.38
64711;BME280;51139;45.626;6.850;2022-08-05T12:24:16;82511.47;;;19.62;60.41
64711;BME280;51139;45.626;6.850;2022-08-05T12:26:44;82509.47;;;19.48;58.82
64711;BME280;51139;45.626;6.850;2022-08-05T12:29:15;82500.03;;;19.61;58.60
64711;BME280;51139;45.626;6.850;2022-08-05T12:31:52;82502.47;;;19.83;56.99
64711;BME280;51139;45.626;6.850;2022-08-05T12:34:23;82498.63;;;20.28;53.69
64711;BME280;51139;45.626;6.850;2022-08-05T12:36:53;82503.88;;;20.68;54.50
64711;BME280;51139;45.626;6.850;2022-08-05T12:39:19;82494.81;;;20.89;52.06
64711;BME280;51139;45.626;6.850;2022-08-05T12:41:45;82491.78;;;20.97;49.45
64711;BME280;51139;45.626;6.850;2022-08-05T12:44:12;82491.22;;;20.84;52.38
64711;BME280;51139;45.626;6.850;2022-08-05T12:46:40;82495.00;;;20.65;53.71
64711;BME280;51139;45.626;6.850;2022-08-05T12:49:10;82491.88;;;20.99;52.52
64711;BME280;51139;45.626;6.850;2022-08-05T12:51:50;82475.44;;;21.53;51.37
64711;BME280;51139;45.626;6.850;2022-08-05T12:54:27;82493.53;;;21.66;49.70
64711;BME280;51139;45.626;6.850;2022-08-05T12:57:04;82488.09;;;21.80;48.88
64711;BME280;51139;45.626;6.850;2022-08-05T12:59:32;82488.38;;;21.56;46.88
64711;BME280;51139;45.626;6.850;2022-08-05T13:04:29;82477.06;;;20.84;51.70
64711;BME280;51139;45.626;6.850;2022-08-05T13:06:57;82482.06;;;20.62;51.09
64711;BME280;51139;45.626;6.850;2022-08-05T13:09:23;82473.66;;;20.69;48.75
64711;BME280;51139;45.626;6.850;2022-08-05T13:11:49;82474.47;;;20.86;48.34
64711;BME280;51139;45.626;6.850;2022-08-05T13:14:23;82471.69;;;20.84;45.60
64711;BME280;51139;45.626;6.850;2022-08-05T13:16:54;82466.81;;;20.80;44.92
64711;BME280;51139;45.626;6.850;2022-08-05T13:19:24;82469.31;;;21.36;47.33
64711;BME280;51139;45.626;6.850;2022-08-05T13:21:50;82470.09;;;20.79;44.38
64711;BME280;51139;45.626;6.850;2022-08-05T13:24:16;82471.31;;;21.06;43.58
64711;BME280;51139;45.626;6.850;2022-08-05T13:26:43;82467.56;;;20.97;42.48
64711;BME280;51139;45.626;6.850;2022-08-05T13:29:09;82463.56;;;21.28;41.49
64711;BME280;51139;45.626;6.850;2022-08-05T13:31:35;82469.91;;;21.35;41.44
64711;BME280;51139;45.626;6.850;2022-08-05T13:34:00;82467.81;;;21.63;42.16
64711;BME280;51139;45.626;6.850;2022-08-05T13:36:26;82464.88;;;21.73;43.95
64711;BME280;51139;45.626;6.850;2022-08-05T13:38:51;82459.75;;;21.79;41.31